Date,TemperatureHighF,TemperatureAvgF,TemperatureLowF,DewpointHighF,DewpointAvgF,DewpointLowF,HumidityHigh,HumidityAvg,HumidityLow,PressureMaxIn,PressureMinIn,WindSpeedMaxMPH,WindSpeedAvgMPH,GustSpeedMaxMPH,PrecipitationSumIn
2013-10-1,82.4,70.4,63.6,71.0,66.5,62.0,95,88,67,29.99,29.90,11,2,12,0.00
2013-10-2,85.7,73.6,67.6,74.0,68.7,67.0,98,85,63,30.03,29.91,9,2,13,0.00
2013-10-3,86.2,75.0,67.4,71.0,67.9,65.0,94,80,57,29.92,29.80,9,4,17,0.22
2013-10-4,87.4,81.2,74.8,72.0,69.4,67.0,84,68,52,29.90,29.84,15,6,16,0.00
2013-10-5,74.5,66.7,53.1,70.0,63.8,50.0,96,90,81,29.90,29.80,11,4,15,0.05
2013-10-6,53.3,49.4,45.3,50.0,44.1,39.0,97,83,62,29.88,29.82,15,4,20,0.02
2013-10-7,72.2,57.2,48.7,50.0,47.3,45.0,93,72,44,30.12,29.88,8,2,13,0.00
2013-10-8,76.0,62.6,51.1,56.0,49.5,46.0,85,64,41,30.18,30.09,7,1,11,0.00
2013-10-9,76.4,60.8,45.9,53.0,49.4,44.0,95,69,40,30.18,30.08,5,1,9,0.00
2013-10-10,79.5,66.2,53.2,62.0,57.2,51.0,95,74,50,30.13,29.97,7,1,9,0.00
2013-10-11,79.1,68.5,56.8,62.0,57.9,55.0,93,71,46,30.00,29.85,12,3,18,0.00
2013-10-12,71.5,66.1,58.9,61.0,53.9,40.0,87,67,43,30.19,29.90,9,3,14,0.00
2013-10-13,70.3,59.3,48.7,45.0,37.6,34.0,83,47,28,30.38,30.19,8,3,12,0.00
2013-10-14,68.1,56.2,46.4,53.0,42.6,33.0,79,61,42,30.34,30.04,10,3,13,0.00
2013-10-15,65.4,59.7,52.0,63.0,56.5,47.0,96,89,78,30.04,29.85,10,3,13,0.26
2013-10-16,53.0,48.3,43.0,46.0,42.3,40.0,90,80,70,30.03,29.96,11,3,14,0.00
2013-10-17,62.4,51.7,45.0,48.0,43.5,39.0,97,76,43,30.00,29.89,10,2,18,0.04
2013-10-18,56.7,48.5,40.8,43.0,40.1,36.0,95,74,50,30.05,29.98,9,3,12,0.11
2013-10-19,55.5,45.0,37.4,40.0,38.0,36.0,96,78,49,30.01,29.93,12,4,18,0.16
2013-10-20,70.4,57.1,43.9,46.0,42.2,38.0,80,60,37,29.94,29.81,12,4,19,0.00
2013-10-21,55.1,48.0,38.9,45.0,37.9,32.0,80,69,51,30.05,29.88,13,3,14,0.00
2013-10-22,56.9,43.4,37.6,46.0,37.7,33.0,91,80,63,30.04,29.79,16,4,24,0.07
2013-10-23,46.2,39.2,32.4,36.0,32.0,27.0,95,77,50,30.15,30.01,10,4,17,0.00
2013-10-24,43.3,38.1,31.5,36.0,28.7,23.0,93,71,49,30.42,30.13,11,3,21,0.00
2013-10-25,54.2,40.2,27.4,34.0,28.0,25.0,95,66,36,30.52,30.20,7,2,13,0.00
2013-10-26,60.2,48.2,40.2,42.0,32.4,26.0,73,56,36,30.20,30.02,11,4,18,0.00
2013-10-27,59.5,46.2,32.4,35.0,30.1,27.0,93,57,32,30.13,30.01,6,2,11,0.00
2013-10-28,68.4,53.2,36.8,45.0,38.6,30.0,83,59,33,30.23,30.05,6,1,8,0.00
2013-10-29,54.7,50.2,44.3,54.0,45.5,37.0,97,85,64,30.23,30.05,5,1,15,0.21
2013-10-30,69.1,61.9,54.5,66.0,60.5,54.0,98,95,87,30.05,29.78,13,2,16,0.12
2013-10-31,63.9,57.8,45.1,63.0,56.5,44.0,98,95,89,29.77,29.36,12,4,21,1.39